createdAt,value
2023-05-02T00:00:59.727Z,0
2023-05-02T00:02:15.861Z,0
2023-05-02T00:03:31.998Z,0
2023-05-02T00:04:48.130Z,0
2023-05-02T00:06:04.275Z,0
2023-05-02T00:07:20.412Z,0
2023-05-02T00:09:52.670Z,0
2023-05-02T00:11:08.805Z,0
2023-05-02T00:12:25.029Z,0
2023-05-02T00:13:40.261Z,0
2023-05-02T00:14:55.475Z,0
2023-05-02T00:16:11.612Z,0
2023-05-02T00:18:43.886Z,0
2023-05-02T00:20:00.017Z,0
2023-05-02T00:21:16.152Z,0
2023-05-02T00:22:32.300Z,0
2023-05-02T00:23:48.431Z,0
2023-05-02T00:25:04.567Z,0
2023-05-02T00:26:20.688Z,0
2023-05-02T00:27:36.829Z,0
2023-05-02T00:28:52.971Z,0
2023-05-02T00:30:09.114Z,0
2023-05-02T00:31:25.245Z,0
2023-05-02T00:32:41.487Z,0
2023-05-02T00:33:57.627Z,0
2023-05-02T00:35:13.777Z,0
2023-05-02T00:36:29.910Z,0
2023-05-02T00:37:46.053Z,0
2023-05-02T00:39:02.183Z,0
2023-05-02T00:40:18.304Z,0
2023-05-02T00:41:34.464Z,0
2023-05-02T00:42:50.596Z,0
2023-05-02T00:44:06.729Z,0
2023-05-02T00:45:22.865Z,0
2023-05-02T00:46:38.982Z,0
2023-05-02T00:47:55.149Z,0
2023-05-02T00:49:11.274Z,0
2023-05-02T00:50:27.408Z,0
2023-05-02T00:51:43.538Z,0
2023-05-02T00:52:59.676Z,0
2023-05-02T00:54:15.821Z,0
2023-05-02T00:55:31.964Z,0
2023-05-02T00:56:48.079Z,0
2023-05-02T00:58:04.228Z,0
2023-05-02T00:59:20.354Z,0
2023-05-02T01:00:36.505Z,0
2023-05-02T01:01:52.646Z,0
2023-05-02T01:03:08.778Z,0
2023-05-02T01:04:24.898Z,0
2023-05-02T01:05:41.034Z,0
2023-05-02T01:06:57.186Z,0
2023-05-02T01:08:13.320Z,0
2023-05-02T01:09:29.446Z,0
2023-05-02T01:10:45.584Z,0
2023-05-02T01:12:01.720Z,0
2023-05-02T01:13:17.873Z,0
2023-05-02T01:14:33.992Z,0
2023-05-02T01:15:50.136Z,0
2023-05-02T01:17:06.266Z,0
2023-05-02T01:18:22.396Z,0
2023-05-02T01:19:38.605Z,0
2023-05-02T01:20:53.825Z,0
2023-05-02T01:22:08.967Z,0
2023-05-02T01:23:25.117Z,0
2023-05-02T01:24:41.253Z,0
2023-05-02T01:25:57.380Z,0
2023-05-02T01:27:13.512Z,0
2023-05-02T01:28:29.643Z,0
2023-05-02T01:29:45.789Z,0
2023-05-02T01:31:01.923Z,0
2023-05-02T01:32:18.068Z,0
2023-05-02T01:34:50.334Z,0
2023-05-02T01:36:06.487Z,0
2023-05-02T01:37:22.606Z,0
2023-05-02T01:38:38.746Z,0
2023-05-02T01:39:54.888Z,0
2023-05-02T01:41:11.005Z,0
2023-05-02T01:42:27.163Z,0
2023-05-02T01:43:43.306Z,0
2023-05-02T01:44:59.425Z,0
2023-05-02T01:46:15.563Z,0
2023-05-02T01:47:31.689Z,0
2023-05-02T01:48:47.842Z,0
2023-05-02T01:50:03.966Z,0
2023-05-02T01:51:20.118Z,0
2023-05-02T01:52:36.235Z,0
2023-05-02T01:55:08.526Z,0
2023-05-02T01:56:24.649Z,0
2023-05-02T01:57:40.798Z,0
2023-05-02T01:58:56.933Z,0
2023-05-02T02:00:13.052Z,0
2023-05-02T02:01:29.196Z,0
2023-05-02T02:02:45.338Z,0
2023-05-02T02:04:01.478Z,0
2023-05-02T02:05:17.608Z,0
2023-05-02T02:06:33.738Z,0
2023-05-02T02:07:49.897Z,0
2023-05-02T02:09:06.083Z,0
2023-05-02T02:10:21.341Z,0
2023-05-02T02:11:36.544Z,0
2023-05-02T02:12:52.674Z,0
2023-05-02T02:14:08.827Z,0
2023-05-02T02:15:24.947Z,0
2023-05-02T02:16:41.077Z,0
2023-05-02T02:17:57.237Z,0
2023-05-02T02:19:13.355Z,0
2023-05-02T02:20:29.505Z,0
2023-05-02T02:21:45.620Z,0
2023-05-02T02:23:01.768Z,0
2023-05-02T02:24:17.902Z,0
2023-05-02T02:25:34.036Z,0
2023-05-02T02:26:50.178Z,0
2023-05-02T02:28:06.320Z,0
2023-05-02T02:29:22.447Z,0
2023-05-02T02:30:38.598Z,0
2023-05-02T02:31:54.719Z,0
2023-05-02T02:33:10.858Z,0
2023-05-02T02:34:26.985Z,0
2023-05-02T02:35:43.122Z,0
2023-05-02T02:36:59.277Z,0
2023-05-02T02:38:15.415Z,0
2023-05-02T02:39:31.539Z,0
2023-05-02T02:40:47.675Z,0
2023-05-02T02:42:03.806Z,0
2023-05-02T02:43:20.014Z,0
2023-05-02T02:44:35.257Z,0
2023-05-02T02:45:51.453Z,0
2023-05-02T02:47:06.646Z,0
2023-05-02T02:48:22.788Z,0
2023-05-02T02:49:38.910Z,0
2023-05-02T02:50:55.047Z,0
2023-05-02T02:52:11.188Z,0
2023-05-02T02:53:27.335Z,0
2023-05-02T02:54:43.465Z,0
2023-05-02T02:55:59.589Z,0
2023-05-02T02:57:15.739Z,0
2023-05-02T02:58:31.858Z,0
2023-05-02T02:59:48.022Z,0
2023-05-02T03:01:04.153Z,0
2023-05-02T03:02:20.282Z,0
2023-05-02T03:03:36.424Z,0
2023-05-02T03:04:52.553Z,0
2023-05-02T03:06:08.691Z,0
2023-05-02T03:07:24.839Z,0
2023-05-02T03:08:40.956Z,0
2023-05-02T03:09:57.089Z,0
2023-05-02T03:11:13.226Z,0
2023-05-02T03:12:29.387Z,0
2023-05-02T03:13:45.501Z,0
2023-05-02T03:15:01.657Z,0
2023-05-02T03:16:17.787Z,0
2023-05-02T03:17:33.910Z,0
2023-05-02T03:18:50.128Z,0
2023-05-02T03:20:05.357Z,0
2023-05-02T03:21:20.556Z,0
2023-05-02T03:22:36.706Z,0
2023-05-02T03:23:52.840Z,0
2023-05-02T03:25:08.971Z,0
2023-05-02T03:26:25.104Z,0
2023-05-02T03:27:41.249Z,0
2023-05-02T03:28:57.383Z,0
2023-05-02T03:30:13.528Z,0
2023-05-02T03:31:29.648Z,0
2023-05-02T03:32:45.785Z,0
2023-05-02T03:34:01.931Z,0
2023-05-02T03:35:18.061Z,0
2023-05-02T03:36:34.214Z,0
2023-05-02T03:37:50.344Z,0
2023-05-02T03:39:06.475Z,0
2023-05-02T03:40:22.611Z,0
2023-05-02T03:41:38.755Z,0
2023-05-02T03:42:54.890Z,0
2023-05-02T03:44:11.024Z,0
2023-05-02T03:45:27.148Z,0
2023-05-02T03:46:43.292Z,0
2023-05-02T03:47:59.436Z,0
2023-05-02T03:49:15.564Z,0
2023-05-02T03:50:31.706Z,0
2023-05-02T03:51:47.842Z,0
2023-05-02T03:53:04.025Z,0
2023-05-02T03:54:19.263Z,0
2023-05-02T03:55:34.482Z,0
2023-05-02T03:56:50.607Z,0
2023-05-02T03:58:06.758Z,0
2023-05-02T03:59:22.888Z,0
2023-05-02T04:00:39.024Z,0
2023-05-02T04:01:55.159Z,0
2023-05-02T04:03:11.284Z,0
2023-05-02T04:04:27.428Z,0
2023-05-02T04:05:43.564Z,5
2023-05-02T04:06:59.711Z,5
2023-05-02T04:08:15.833Z,5
2023-05-02T04:09:31.966Z,5
2023-05-02T04:10:48.114Z,5
2023-05-02T04:12:04.249Z,5
2023-05-02T04:13:20.384Z,5
2023-05-02T04:14:36.508Z,5
2023-05-02T04:15:52.650Z,5
2023-05-02T04:17:08.805Z,5
2023-05-02T04:18:24.926Z,5
2023-05-02T04:19:41.068Z,5
2023-05-02T04:20:57.196Z,5
2023-05-02T04:22:13.337Z,5
2023-05-02T04:23:29.487Z,5
2023-05-02T04:24:45.607Z,5
2023-05-02T04:26:01.749Z,5
2023-05-02T04:27:17.936Z,5
2023-05-02T04:28:33.187Z,5
2023-05-02T04:29:49.361Z,11
2023-05-02T04:31:04.577Z,11
2023-05-02T04:32:20.699Z,11
2023-05-02T04:33:36.853Z,11
2023-05-02T04:34:52.989Z,11
2023-05-02T04:36:09.114Z,11
2023-05-02T04:38:41.380Z,11
2023-05-02T04:39:57.541Z,11
2023-05-02T04:41:13.662Z,5
2023-05-02T04:42:29.814Z,5
2023-05-02T04:43:45.946Z,5
2023-05-02T04:45:02.079Z,5
2023-05-02T04:46:18.227Z,5
2023-05-02T04:47:34.352Z,5
2023-05-02T04:48:50.489Z,0
2023-05-02T04:50:06.616Z,0
2023-05-02T04:51:22.761Z,0
2023-05-02T04:52:38.909Z,0
2023-05-02T04:53:55.030Z,5
2023-05-02T04:55:11.165Z,5
2023-05-02T04:56:27.291Z,5
2023-05-02T04:57:43.426Z,5
2023-05-02T04:58:59.577Z,11
2023-05-02T05:00:15.708Z,11
2023-05-02T05:01:31.839Z,11
2023-05-02T05:02:48.039Z,16
2023-05-02T05:04:03.270Z,16
2023-05-02T05:05:18.479Z,22
2023-05-02T05:06:33.627Z,22
2023-05-02T05:07:49.779Z,16
2023-05-02T05:09:05.922Z,16
2023-05-02T05:11:38.188Z,16
2023-05-02T05:12:54.308Z,16
2023-05-02T05:14:10.459Z,11
2023-05-02T05:15:26.608Z,11
2023-05-02T05:16:42.724Z,16
2023-05-02T05:17:58.862Z,16
2023-05-02T05:19:14.988Z,16
2023-05-02T05:20:31.153Z,22
2023-05-02T05:21:47.274Z,22
2023-05-02T05:23:03.414Z,22
2023-05-02T05:24:19.542Z,22
2023-05-02T05:25:35.680Z,22
2023-05-02T05:26:51.819Z,22
2023-05-02T05:28:07.969Z,28
2023-05-02T05:29:24.092Z,22
2023-05-02T05:30:40.219Z,16
2023-05-02T05:31:56.352Z,11
2023-05-02T05:33:12.504Z,11
2023-05-02T05:34:28.636Z,11
2023-05-02T05:35:44.773Z,11
2023-05-02T05:37:00.910Z,11
2023-05-02T05:38:17.032Z,11
2023-05-02T05:39:33.194Z,11
2023-05-02T05:40:49.313Z,11
2023-05-02T05:42:05.446Z,11
2023-05-02T05:43:21.588Z,16
2023-05-02T05:44:37.715Z,11
2023-05-02T05:45:53.862Z,11
2023-05-02T05:47:10.006Z,11
2023-05-02T05:48:26.134Z,11
2023-05-02T05:49:42.269Z,11
2023-05-02T05:50:58.398Z,11
2023-05-02T05:52:14.561Z,11
2023-05-02T05:53:30.754Z,11
2023-05-02T05:54:45.975Z,11
2023-05-02T05:56:01.194Z,11
2023-05-02T05:57:17.334Z,11
2023-05-02T05:58:33.467Z,11
2023-05-02T05:59:49.591Z,16
2023-05-02T06:01:05.722Z,16
2023-05-02T06:03:38.013Z,16
2023-05-02T06:04:54.149Z,16
2023-05-02T06:06:10.280Z,22
2023-05-02T06:07:26.410Z,28
2023-05-02T06:08:42.558Z,33
2023-05-02T06:09:58.692Z,39
2023-05-02T06:11:14.818Z,39
2023-05-02T06:12:30.948Z,50
2023-05-02T06:13:47.080Z,61
2023-05-02T06:15:03.245Z,67
2023-05-02T06:16:19.365Z,84
2023-05-02T06:17:35.507Z,78
2023-05-02T06:18:51.635Z,61
2023-05-02T06:20:07.766Z,90
2023-05-02T06:21:23.926Z,95
2023-05-02T06:22:40.060Z,101
2023-05-02T06:23:56.178Z,78
2023-05-02T06:25:12.318Z,78
2023-05-02T06:26:28.457Z,61
2023-05-02T06:27:44.666Z,67
2023-05-02T06:28:59.945Z,56
2023-05-02T06:30:15.124Z,61
2023-05-02T06:31:31.277Z,56
2023-05-02T06:32:47.405Z,61
2023-05-02T06:34:03.539Z,56
2023-05-02T06:35:19.671Z,73
2023-05-02T06:36:35.797Z,61
2023-05-02T06:37:51.958Z,56
2023-05-02T06:39:08.083Z,56
2023-05-02T06:40:24.216Z,45
2023-05-02T06:41:40.364Z,50
2023-05-02T06:42:56.479Z,45
2023-05-02T06:44:12.641Z,45
2023-05-02T06:45:28.762Z,39
2023-05-02T06:46:44.909Z,39
2023-05-02T06:48:01.029Z,33
2023-05-02T06:49:17.171Z,39
2023-05-02T06:50:33.308Z,39
2023-05-02T06:51:49.452Z,45
2023-05-02T06:53:05.574Z,45
2023-05-02T06:54:21.709Z,45
2023-05-02T06:55:37.841Z,50
2023-05-02T06:56:53.989Z,67
2023-05-02T06:58:10.132Z,67
2023-05-02T06:59:26.270Z,61
2023-05-02T07:00:42.402Z,50
2023-05-02T07:01:58.596Z,56
2023-05-02T07:03:13.835Z,56
2023-05-02T07:04:30.009Z,45
2023-05-02T07:05:45.217Z,45
2023-05-02T07:07:01.369Z,39
2023-05-02T07:08:17.492Z,33
2023-05-02T07:09:33.633Z,33
2023-05-02T07:10:49.767Z,33
2023-05-02T07:12:05.908Z,28
2023-05-02T07:13:22.045Z,28
2023-05-02T07:14:38.185Z,22
2023-05-02T07:15:54.315Z,33
2023-05-02T07:18:26.582Z,61
2023-05-02T07:19:42.727Z,73
2023-05-02T07:20:58.856Z,140
2023-05-02T07:22:14.991Z,151
2023-05-02T07:23:31.137Z,208
2023-05-02T07:24:47.260Z,208
2023-05-02T07:26:03.413Z,157
2023-05-02T07:27:19.552Z,90
2023-05-02T07:28:35.687Z,67
2023-05-02T07:29:51.811Z,67
2023-05-02T07:31:07.945Z,78
2023-05-02T07:32:24.098Z,95
2023-05-02T07:33:40.227Z,123
2023-05-02T07:34:56.350Z,106
2023-05-02T07:36:12.484Z,112
2023-05-02T07:37:28.688Z,123
2023-05-02T07:38:43.928Z,146
2023-05-02T07:39:59.139Z,140
2023-05-02T07:41:15.263Z,118
2023-05-02T07:42:31.419Z,129
2023-05-02T07:43:47.547Z,112
2023-05-02T07:45:03.678Z,101
2023-05-02T07:46:19.000Z,101
2023-05-02T07:47:35.944Z,84
2023-05-02T07:48:52.089Z,78
2023-05-02T07:50:08.226Z,78
2023-05-02T07:51:24.352Z,101
2023-05-02T07:52:40.501Z,112
2023-05-02T07:53:56.635Z,112
2023-05-02T07:55:12.764Z,135
2023-05-02T07:56:28.906Z,118
2023-05-02T07:57:45.039Z,101
2023-05-02T07:59:01.174Z,84
2023-05-02T08:00:17.311Z,73
2023-05-02T08:01:33.462Z,78
2023-05-02T08:02:49.589Z,106
2023-05-02T08:04:05.720Z,118
2023-05-02T08:05:21.862Z,101
2023-05-02T08:06:37.990Z,78
2023-05-02T08:07:54.132Z,78
2023-05-02T08:09:10.265Z,78
2023-05-02T08:10:26.402Z,90
2023-05-02T08:11:42.596Z,106
2023-05-02T08:12:57.832Z,163
2023-05-02T08:14:13.032Z,157
2023-05-02T08:15:28.201Z,135
2023-05-02T08:16:44.348Z,90
2023-05-02T08:18:00.477Z,78
2023-05-02T08:19:16.603Z,78
2023-05-02T08:20:32.750Z,73
2023-05-02T08:21:48.865Z,90
2023-05-02T08:23:05.016Z,78
2023-05-02T08:24:21.147Z,101
2023-05-02T08:25:37.292Z,101
2023-05-02T08:26:53.427Z,84
2023-05-02T08:28:09.566Z,78
2023-05-02T08:29:25.713Z,78
2023-05-02T08:30:41.840Z,106
2023-05-02T08:31:57.963Z,174
2023-05-02T08:33:14.096Z,129
2023-05-02T08:34:30.235Z,112
2023-05-02T08:35:46.384Z,95
2023-05-02T08:37:02.509Z,95
2023-05-02T08:38:18.653Z,78
2023-05-02T08:39:34.785Z,73
2023-05-02T08:40:50.926Z,84
2023-05-02T08:42:07.072Z,101
2023-05-02T08:43:23.198Z,129
2023-05-02T08:44:39.328Z,146
2023-05-02T08:45:55.474Z,202
2023-05-02T08:47:11.608Z,185
2023-05-02T08:48:27.739Z,185
2023-05-02T08:49:43.889Z,196
2023-05-02T08:51:00.012Z,230
2023-05-02T08:52:16.145Z,247
2023-05-02T08:53:32.275Z,230
2023-05-02T08:54:48.436Z,219
2023-05-02T08:56:04.561Z,230
2023-05-02T08:57:20.691Z,236
2023-05-02T08:58:36.821Z,264
2023-05-02T08:59:52.954Z,275
2023-05-02T09:01:09.111Z,298
2023-05-02T09:02:25.305Z,286
2023-05-02T09:03:40.536Z,253
2023-05-02T09:04:55.753Z,241
2023-05-02T09:06:11.882Z,253
2023-05-02T09:07:28.016Z,258
2023-05-02T09:08:44.152Z,258
2023-05-02T09:10:00.291Z,264
2023-05-02T09:11:16.427Z,275
2023-05-02T09:12:32.681Z,286
2023-05-02T09:13:48.830Z,270
2023-05-02T09:15:04.957Z,264
2023-05-02T09:16:21.093Z,258
2023-05-02T09:17:37.232Z,264
2023-05-02T09:18:53.377Z,320
2023-05-02T09:20:09.494Z,416
2023-05-02T09:21:25.633Z,331
2023-05-02T09:22:41.763Z,343
2023-05-02T09:23:57.925Z,303
2023-05-02T09:25:14.051Z,236
2023-05-02T09:26:30.176Z,219
2023-05-02T09:27:46.323Z,163
2023-05-02T09:29:02.441Z,191
2023-05-02T09:30:18.596Z,202
2023-05-02T09:31:34.723Z,191
2023-05-02T09:32:50.869Z,230
2023-05-02T09:34:06.991Z,202
2023-05-02T09:35:23.125Z,151
2023-05-02T09:36:39.278Z,118
2023-05-02T09:37:55.404Z,118
2023-05-02T09:39:11.554Z,180
2023-05-02T09:40:27.685Z,163
2023-05-02T09:41:43.801Z,151
2023-05-02T09:42:59.963Z,146
2023-05-02T09:44:16.098Z,140
2023-05-02T09:45:32.230Z,146
2023-05-02T09:46:48.362Z,191
2023-05-02T09:48:04.496Z,202
2023-05-02T09:49:20.646Z,230
2023-05-02T09:50:36.768Z,230
2023-05-02T09:51:52.903Z,219
2023-05-02T09:53:09.033Z,208
2023-05-02T09:54:25.181Z,191
2023-05-02T09:55:41.314Z,157
2023-05-02T09:56:57.459Z,163
2023-05-02T09:58:13.591Z,157
2023-05-02T09:59:29.783Z,140
2023-05-02T10:00:45.013Z,146
2023-05-02T10:02:00.214Z,135
2023-05-02T10:03:15.366Z,157
2023-05-02T10:04:31.526Z,163
2023-05-02T10:05:47.646Z,174
2023-05-02T10:07:03.778Z,151
2023-05-02T10:08:19.923Z,135
2023-05-02T10:09:36.050Z,151
2023-05-02T10:10:52.210Z,140
2023-05-02T10:12:08.330Z,123
2023-05-02T10:13:24.468Z,112
2023-05-02T10:14:40.602Z,106
2023-05-02T10:15:56.733Z,123
2023-05-02T10:17:12.875Z,129
2023-05-02T10:18:29.018Z,140
2023-05-02T10:19:45.156Z,151
2023-05-02T10:21:01.287Z,163
2023-05-02T10:22:17.420Z,157
2023-05-02T10:23:33.556Z,146
2023-05-02T10:24:49.702Z,151
2023-05-02T10:26:05.834Z,157
2023-05-02T10:27:21.967Z,168
2023-05-02T10:28:38.107Z,185
2023-05-02T10:29:54.238Z,180
2023-05-02T10:31:10.381Z,180
2023-05-02T10:32:26.519Z,185
2023-05-02T10:33:42.647Z,168
2023-05-02T10:34:58.770Z,151
2023-05-02T10:36:14.929Z,146
2023-05-02T10:37:31.060Z,146
2023-05-02T10:38:47.186Z,151
2023-05-02T10:40:03.320Z,157
2023-05-02T10:41:19.453Z,191
2023-05-02T10:42:35.603Z,180
2023-05-02T10:43:51.749Z,151
2023-05-02T10:45:07.865Z,151
2023-05-02T10:46:24.000Z,185
2023-05-02T10:47:40.148Z,213
2023-05-02T10:48:56.296Z,202
2023-05-02T10:50:12.472Z,185
2023-05-02T10:51:27.740Z,185
2023-05-02T10:52:42.944Z,185
2023-05-02T10:53:59.075Z,191
2023-05-02T10:55:15.212Z,185
2023-05-02T10:56:31.349Z,180
2023-05-02T10:57:47.470Z,180
2023-05-02T10:59:03.631Z,219
2023-05-02T11:00:19.756Z,281
2023-05-02T11:01:35.889Z,337
2023-05-02T11:02:52.021Z,382
2023-05-02T11:04:08.166Z,393
2023-05-02T11:05:24.302Z,427
2023-05-02T11:06:40.435Z,427
2023-05-02T11:07:56.573Z,365
2023-05-02T11:09:12.713Z,326
2023-05-02T11:10:28.838Z,303
2023-05-02T11:11:44.999Z,337
2023-05-02T11:13:01.119Z,399
2023-05-02T11:14:17.257Z,348
2023-05-02T11:15:33.389Z,303
2023-05-02T11:16:49.533Z,247
2023-05-02T11:18:05.680Z,191
2023-05-02T11:19:21.802Z,174
2023-05-02T11:20:37.935Z,180
2023-05-02T11:21:54.067Z,185
2023-05-02T11:23:10.199Z,185
2023-05-02T11:24:26.404Z,213
2023-05-02T11:25:41.658Z,258
2023-05-02T11:26:56.855Z,303
2023-05-02T11:28:13.006Z,298
2023-05-02T11:29:29.129Z,382
2023-05-02T11:30:45.259Z,270
2023-05-02T11:32:01.407Z,405
2023-05-02T11:33:17.537Z,405
2023-05-02T11:34:33.687Z,438
2023-05-02T11:35:49.822Z,303
2023-05-02T11:37:05.941Z,236
2023-05-02T11:38:22.092Z,191
2023-05-02T11:39:38.215Z,191
2023-05-02T11:40:54.354Z,196
2023-05-02T11:42:10.493Z,185
2023-05-02T11:43:26.628Z,180
2023-05-02T11:44:42.759Z,174
2023-05-02T11:45:58.888Z,174
2023-05-02T11:47:15.047Z,202
2023-05-02T11:48:31.189Z,219
2023-05-02T11:49:47.306Z,219
2023-05-02T11:51:03.438Z,247
2023-05-02T11:52:19.584Z,241
2023-05-02T11:53:35.729Z,236
2023-05-02T11:54:51.860Z,208
2023-05-02T11:56:08.004Z,225
2023-05-02T11:57:24.121Z,241
2023-05-02T11:58:40.323Z,253
2023-05-02T11:59:55.565Z,230
2023-05-02T12:01:11.757Z,225
2023-05-02T12:02:26.967Z,219
2023-05-02T12:03:43.096Z,230
2023-05-02T12:04:59.238Z,213
2023-05-02T12:06:15.363Z,202
2023-05-02T12:07:31.493Z,196
2023-05-02T12:08:47.637Z,202
2023-05-02T12:10:03.779Z,236
2023-05-02T12:11:19.918Z,253
2023-05-02T12:12:36.047Z,253
2023-05-02T12:13:52.174Z,253
2023-05-02T12:15:08.318Z,270
2023-05-02T12:16:24.473Z,281
2023-05-02T12:17:40.605Z,258
2023-05-02T12:18:56.728Z,264
2023-05-02T12:20:12.864Z,270
2023-05-02T12:21:28.990Z,258
2023-05-02T12:22:45.144Z,270
2023-05-02T12:24:01.279Z,264
2023-05-02T12:25:17.409Z,241
2023-05-02T12:26:33.544Z,219
2023-05-02T12:27:49.681Z,225
2023-05-02T12:29:05.821Z,219
2023-05-02T12:30:21.971Z,219
2023-05-02T12:31:38.094Z,202
2023-05-02T12:32:54.231Z,180
2023-05-02T12:34:10.417Z,191
2023-05-02T12:35:25.664Z,202
2023-05-02T12:36:40.858Z,219
2023-05-02T12:37:57.000Z,225
2023-05-02T12:39:13.156Z,225
2023-05-02T12:40:29.285Z,241
2023-05-02T12:41:45.415Z,264
2023-05-02T12:43:01.552Z,264
2023-05-02T12:44:17.674Z,236
2023-05-02T12:45:33.839Z,236
2023-05-02T12:46:49.972Z,236
2023-05-02T12:48:06.089Z,236
2023-05-02T12:49:22.226Z,247
2023-05-02T12:50:38.368Z,253
2023-05-02T12:51:54.502Z,219
2023-05-02T12:53:10.654Z,213
2023-05-02T12:54:26.782Z,208
2023-05-02T12:55:42.914Z,196
2023-05-02T12:56:59.044Z,213
2023-05-02T12:58:15.184Z,196
2023-05-02T12:59:31.327Z,180
2023-05-02T13:00:47.462Z,168
2023-05-02T13:02:03.600Z,163
2023-05-02T13:03:19.729Z,146
2023-05-02T13:04:35.880Z,135
2023-05-02T13:05:52.004Z,157
2023-05-02T13:07:08.147Z,174
2023-05-02T13:08:24.343Z,180
2023-05-02T13:09:39.567Z,174
2023-05-02T13:10:54.779Z,180
2023-05-02T13:12:09.931Z,191
2023-05-02T13:13:26.083Z,191
2023-05-02T13:14:42.217Z,202
2023-05-02T13:15:58.345Z,208
2023-05-02T13:17:14.477Z,208
2023-05-02T13:18:30.612Z,185
2023-05-02T13:19:46.770Z,168
2023-05-02T13:21:02.898Z,151
2023-05-02T13:22:19.036Z,135
2023-05-02T13:23:35.152Z,112
2023-05-02T13:24:51.293Z,106
2023-05-02T13:26:07.439Z,95
2023-05-02T13:27:23.577Z,90
2023-05-02T13:28:39.710Z,90
2023-05-02T13:29:55.841Z,101
2023-05-02T13:31:11.982Z,106
2023-05-02T13:32:28.127Z,95
2023-05-02T13:33:44.250Z,90
2023-05-02T13:35:00.386Z,90
2023-05-02T13:36:16.523Z,84
2023-05-02T13:37:32.658Z,90
2023-05-02T13:38:48.808Z,90
2023-05-02T13:41:21.068Z,106
2023-05-02T13:42:37.201Z,106
2023-05-02T13:43:53.342Z,123
2023-05-02T13:45:09.490Z,140
2023-05-02T13:46:25.616Z,168
2023-05-02T13:47:41.758Z,191
2023-05-02T13:48:57.894Z,202
2023-05-02T13:50:14.017Z,196
2023-05-02T13:51:30.159Z,196
2023-05-02T13:52:46.293Z,202
2023-05-02T13:54:02.423Z,196
2023-05-02T13:55:18.574Z,191
2023-05-02T13:56:34.696Z,180
2023-05-02T13:57:50.843Z,185
2023-05-02T13:59:07.038Z,174
2023-05-02T14:00:22.271Z,157
2023-05-02T14:01:37.492Z,151
2023-05-02T14:02:53.624Z,140
2023-05-02T14:04:09.754Z,157
2023-05-02T14:05:25.884Z,174
2023-05-02T14:06:42.018Z,151
2023-05-02T14:07:58.173Z,106
2023-05-02T14:09:14.288Z,90
2023-05-02T14:10:30.427Z,95
2023-05-02T14:11:46.572Z,112
2023-05-02T14:13:02.701Z,135
2023-05-02T14:14:18.843Z,129
2023-05-02T14:15:34.969Z,106
2023-05-02T14:16:51.116Z,101
2023-05-02T14:18:07.251Z,95
2023-05-02T14:19:23.381Z,90
2023-05-02T14:20:39.532Z,78
2023-05-02T14:21:55.666Z,73
2023-05-02T14:23:11.787Z,67
2023-05-02T14:24:27.925Z,73
2023-05-02T14:25:44.057Z,90
2023-05-02T14:27:00.199Z,101
2023-05-02T14:28:16.346Z,123
2023-05-02T14:29:32.466Z,146
2023-05-02T14:30:48.612Z,168
2023-05-02T14:32:04.735Z,163
2023-05-02T14:33:20.949Z,140
2023-05-02T14:34:36.192Z,140
2023-05-02T14:35:52.384Z,135
2023-05-02T14:37:07.577Z,140
2023-05-02T14:38:23.720Z,146
2023-05-02T14:39:39.843Z,146
2023-05-02T14:40:55.977Z,140
2023-05-02T14:42:12.115Z,146
2023-05-02T14:43:28.274Z,151
2023-05-02T14:44:44.400Z,140
2023-05-02T14:46:00.537Z,135
2023-05-02T14:47:16.661Z,129
2023-05-02T14:48:32.788Z,123
2023-05-02T14:49:48.957Z,123
2023-05-02T14:51:05.075Z,129
2023-05-02T14:52:21.000Z,123
2023-05-02T14:53:37.357Z,95
2023-05-02T14:54:53.477Z,84
2023-05-02T14:56:09.637Z,90
2023-05-02T14:57:25.765Z,90
2023-05-02T14:58:41.889Z,67
2023-05-02T14:59:58.039Z,67
2023-05-02T15:01:14.163Z,67
2023-05-02T15:02:30.322Z,67
2023-05-02T15:03:46.436Z,67
2023-05-02T15:05:02.574Z,84
2023-05-02T15:06:18.714Z,112
2023-05-02T15:07:34.853Z,118
2023-05-02T15:08:51.061Z,112
2023-05-02T15:10:06.309Z,112
2023-05-02T15:11:21.525Z,106
2023-05-02T15:12:37.671Z,90
2023-05-02T15:13:53.800Z,90
2023-05-02T15:15:09.938Z,101
2023-05-02T15:16:26.063Z,101
2023-05-02T15:17:42.198Z,106
2023-05-02T15:18:58.343Z,106
2023-05-02T15:20:14.472Z,118
2023-05-02T15:21:30.608Z,106
2023-05-02T15:22:46.740Z,90
2023-05-02T15:24:02.886Z,73
2023-05-02T15:25:19.027Z,67
2023-05-02T15:26:35.161Z,61
2023-05-02T15:27:51.290Z,73
2023-05-02T15:29:07.426Z,84
2023-05-02T15:30:23.563Z,84
2023-05-02T15:31:39.710Z,95
2023-05-02T15:32:55.846Z,101
2023-05-02T15:34:11.977Z,106
2023-05-02T15:35:28.108Z,106
2023-05-02T15:36:44.240Z,95
2023-05-02T15:38:00.388Z,90
2023-05-02T15:39:16.527Z,95
2023-05-02T15:40:32.661Z,101
2023-05-02T15:41:48.785Z,90
2023-05-02T15:43:04.990Z,73
2023-05-02T15:44:20.226Z,61
2023-05-02T15:45:35.422Z,50
2023-05-02T15:46:51.559Z,45
2023-05-02T15:48:07.709Z,45
2023-05-02T15:49:23.849Z,50
2023-05-02T15:50:39.966Z,50
2023-05-02T15:51:56.104Z,61
2023-05-02T15:53:12.231Z,67
2023-05-02T15:54:28.385Z,73
2023-05-02T15:55:44.516Z,84
2023-05-02T15:57:00.663Z,90
2023-05-02T15:58:16.797Z,90
2023-05-02T15:59:32.917Z,84
2023-05-02T16:00:49.060Z,84
2023-05-02T16:02:05.199Z,84
2023-05-02T16:03:21.333Z,84
2023-05-02T16:04:37.464Z,73
2023-05-02T16:05:53.596Z,73
2023-05-02T16:07:09.747Z,78
2023-05-02T16:08:25.880Z,78
2023-05-02T16:09:42.019Z,73
2023-05-02T16:10:58.151Z,78
2023-05-02T16:12:14.287Z,78
2023-05-02T16:13:30.425Z,67
2023-05-02T16:14:46.565Z,50
2023-05-02T16:16:02.693Z,45
2023-05-02T16:17:18.898Z,50
2023-05-02T16:18:34.128Z,45
2023-05-02T16:19:50.329Z,39
2023-05-02T16:21:05.530Z,39
2023-05-02T16:22:21.778Z,39
2023-05-02T16:23:37.927Z,39
2023-05-02T16:24:54.061Z,39
2023-05-02T16:26:10.202Z,33
2023-05-02T16:27:26.339Z,45
2023-05-02T16:28:42.475Z,50
2023-05-02T16:29:58.609Z,56
2023-05-02T16:31:14.749Z,56
2023-05-02T16:32:30.873Z,61
2023-05-02T16:33:47.008Z,61
2023-05-02T16:35:03.152Z,56
2023-05-02T16:36:19.293Z,56
2023-05-02T16:37:35.423Z,61
2023-05-02T16:38:51.565Z,67
2023-05-02T16:40:07.701Z,67
2023-05-02T16:41:23.838Z,67
2023-05-02T16:42:39.982Z,61
2023-05-02T16:43:56.112Z,50
2023-05-02T16:45:12.250Z,45
2023-05-02T16:46:28.374Z,45
2023-05-02T16:47:44.504Z,39
2023-05-02T16:49:00.654Z,39
2023-05-02T16:50:16.798Z,39
2023-05-02T16:51:32.929Z,33
2023-05-02T16:52:49.052Z,33
2023-05-02T16:54:05.198Z,33
2023-05-02T16:55:21.338Z,33
2023-05-02T16:56:37.465Z,33
2023-05-02T16:57:53.607Z,33
2023-05-02T16:59:09.731Z,33
2023-05-02T17:00:25.868Z,28
2023-05-02T17:01:42.022Z,28
2023-05-02T17:02:58.157Z,28
2023-05-02T17:04:14.288Z,28
2023-05-02T17:05:30.415Z,28
2023-05-02T17:06:46.560Z,28
2023-05-02T17:08:02.700Z,28
2023-05-02T17:09:18.884Z,28
2023-05-02T17:10:34.093Z,28
2023-05-02T17:11:50.224Z,22
2023-05-02T17:13:06.376Z,22
2023-05-02T17:14:22.510Z,22
2023-05-02T17:15:38.657Z,22
2023-05-02T17:16:54.781Z,22
2023-05-02T17:18:10.904Z,22
2023-05-02T17:19:27.059Z,22
2023-05-02T17:20:43.190Z,28
2023-05-02T17:21:59.326Z,28
2023-05-02T17:23:15.463Z,28
2023-05-02T17:24:31.599Z,28
2023-05-02T17:25:47.733Z,28
2023-05-02T17:27:03.867Z,28
2023-05-02T17:28:19.998Z,28
2023-05-02T17:29:36.142Z,28
2023-05-02T17:30:52.280Z,28
2023-05-02T17:32:08.424Z,28
2023-05-02T17:33:24.563Z,28
2023-05-02T17:34:40.684Z,28
2023-05-02T17:35:56.814Z,28
2023-05-02T17:37:12.955Z,28
2023-05-02T17:38:29.100Z,28
2023-05-02T17:39:45.233Z,22
2023-05-02T17:41:01.365Z,22
2023-05-02T17:42:17.567Z,22
2023-05-02T17:43:32.791Z,22
2023-05-02T17:44:48.007Z,22
2023-05-02T17:46:03.156Z,22
2023-05-02T17:47:19.316Z,22
2023-05-02T17:48:35.432Z,22
2023-05-02T17:49:51.570Z,22
2023-05-02T17:51:07.704Z,16
2023-05-02T17:52:23.839Z,16
2023-05-02T17:53:39.991Z,16
2023-05-02T17:54:56.113Z,11
2023-05-02T17:57:28.389Z,11
2023-05-02T17:58:44.522Z,11
2023-05-02T18:00:00.664Z,11
2023-05-02T18:01:16.810Z,11
2023-05-02T18:02:32.941Z,11
2023-05-02T18:03:49.069Z,11
2023-05-02T18:05:05.205Z,5
2023-05-02T18:06:21.347Z,5
2023-05-02T18:07:37.486Z,5
2023-05-02T18:08:53.619Z,5
2023-05-02T18:10:09.751Z,5
2023-05-02T18:11:25.884Z,5
2023-05-02T18:12:42.039Z,5
2023-05-02T18:13:58.163Z,5